sensor_id;sensor_type;location;lat;lon;timestamp;P1;durP1;ratioP1;P2;durP2;ratioP2
22995;SDS011;11664;49.774;8.650;2022-10-16T00:02:06;10.65;;;10.05;;
22995;SDS011;11664;49.774;8.650;2022-10-16T00:04:32;6.88;;;6.57;;
22995;SDS011;11664;49.774;8.650;2022-10-16T00:06:58;29.55;;;28.00;;
22995;SDS011;11664;49.774;8.650;2022-10-16T00:09:24;93.97;;;89.15;;
22995;SDS011;11664;49.774;8.650;2022-10-16T00:11:50;24.48;;;23.23;;
22995;SDS011;11664;49.774;8.650;2022-10-16T00:14:16;60.13;;;57.08;;
22995;SDS011;11664;49.774;8.650;2022-10-16T00:16:42;46.47;;;43.85;;
22995;SDS011;11664;49.774;8.650;2022-10-16T00:19:09;19.45;;;18.45;;
22995;SDS011;11664;49.774;8.650;2022-10-16T00:21:35;9.50;;;8.95;;
22995;SDS011;11664;49.774;8.650;2022-10-16T00:24:02;9.90;;;9.40;;
22995;SDS011;11664;49.774;8.650;2022-10-16T00:26:29;8.20;;;7.75;;
22995;SDS011;11664;49.774;8.650;2022-10-16T00:28:56;9.10;;;8.65;;
22995;SDS011;11664;49.774;8.650;2022-10-16T00:31:22;9.05;;;8.60;;
22995;SDS011;11664;49.774;8.650;2022-10-16T00:33:48;5.97;;;5.68;;
22995;SDS011;11664;49.774;8.650;2022-10-16T00:36:15;4.88;;;4.68;;
22995;SDS011;11664;49.774;8.650;2022-10-16T00:38:42;7.32;;;6.97;;
22995;SDS011;11664;49.774;8.650;2022-10-16T00:41:16;11.10;;;10.50;;
22995;SDS011;11664;49.774;8.650;2022-10-16T00:46:19;10.55;;;9.88;;
22995;SDS011;11664;49.774;8.650;2022-10-16T00:48:52;4.95;;;4.75;;
22995;SDS011;11664;49.774;8.650;2022-10-16T00:51:21;5.57;;;5.28;;
22995;SDS011;11664;49.774;8.650;2022-10-16T00:53:49;4.82;;;4.63;;
22995;SDS011;11664;49.774;8.650;2022-10-16T00:56:15;4.47;;;4.28;;
22995;SDS011;11664;49.774;8.650;2022-10-16T00:58:41;4.97;;;4.75;;
22995;SDS011;11664;49.774;8.650;2022-10-16T01:01:07;6.88;;;6.57;;
22995;SDS011;11664;49.774;8.650;2022-10-16T01:03:35;6.90;;;6.60;;
22995;SDS011;11664;49.774;8.650;2022-10-16T01:06:46;10.50;;;10.00;;
22995;SDS011;11664;49.774;8.650;2022-10-16T01:11:22;7.53;;;7.22;;
22995;SDS011;11664;49.774;8.650;2022-10-16T01:13:53;12.20;;;11.63;;
22995;SDS011;11664;49.774;8.650;2022-10-16T01:18:53;7.47;;;7.05;;
22995;SDS011;11664;49.774;8.650;2022-10-16T01:21:22;7.00;;;6.45;;
22995;SDS011;11664;49.774;8.650;2022-10-16T01:29:09;14.05;;;13.38;;
22995;SDS011;11664;49.774;8.650;2022-10-16T01:31:39;10.57;;;10.05;;
22995;SDS011;11664;49.774;8.650;2022-10-16T01:34:16;11.52;;;10.95;;
22995;SDS011;11664;49.774;8.650;2022-10-16T01:36:48;9.52;;;8.10;;
22995;SDS011;11664;49.774;8.650;2022-10-16T01:39:17;10.68;;;10.13;;
22995;SDS011;11664;49.774;8.650;2022-10-16T01:41:45;7.53;;;7.18;;
22995;SDS011;11664;49.774;8.650;2022-10-16T01:44:14;5.55;;;5.30;;
22995;SDS011;11664;49.774;8.650;2022-10-16T01:46:43;9.23;;;8.73;;
22995;SDS011;11664;49.774;8.650;2022-10-16T01:49:11;11.15;;;10.65;;
22995;SDS011;11664;49.774;8.650;2022-10-16T01:51:38;7.70;;;7.28;;
22995;SDS011;11664;49.774;8.650;2022-10-16T01:54:04;8.88;;;8.43;;
22995;SDS011;11664;49.774;8.650;2022-10-16T01:56:32;9.93;;;8.40;;
22995;SDS011;11664;49.774;8.650;2022-10-16T01:59:04;8.77;;;8.27;;
22995;SDS011;11664;49.774;8.650;2022-10-16T02:01:32;6.60;;;6.30;;
22995;SDS011;11664;49.774;8.650;2022-10-16T02:03:59;4.60;;;4.40;;
22995;SDS011;11664;49.774;8.650;2022-10-16T02:06:27;6.70;;;6.35;;
22995;SDS011;11664;49.774;8.650;2022-10-16T02:08:54;11.32;;;10.73;;
22995;SDS011;11664;49.774;8.650;2022-10-16T02:11:20;8.00;;;7.47;;
22995;SDS011;11664;49.774;8.650;2022-10-16T02:13:48;20.42;;;19.38;;
22995;SDS011;11664;49.774;8.650;2022-10-16T02:16:14;9.60;;;9.10;;
22995;SDS011;11664;49.774;8.650;2022-10-16T02:18:40;8.10;;;7.70;;
22995;SDS011;11664;49.774;8.650;2022-10-16T02:23:49;19.83;;;18.77;;
22995;SDS011;11664;49.774;8.650;2022-10-16T02:26:18;26.88;;;25.42;;
22995;SDS011;11664;49.774;8.650;2022-10-16T02:28:48;26.15;;;24.85;;
22995;SDS011;11664;49.774;8.650;2022-10-16T02:31:18;16.42;;;15.50;;
22995;SDS011;11664;49.774;8.650;2022-10-16T02:33:46;25.63;;;24.27;;
22995;SDS011;11664;49.774;8.650;2022-10-16T02:36:12;25.20;;;23.90;;
22995;SDS011;11664;49.774;8.650;2022-10-16T02:38:39;35.15;;;33.17;;
22995;SDS011;11664;49.774;8.650;2022-10-16T02:41:06;77.95;;;73.60;;
22995;SDS011;11664;49.774;8.650;2022-10-16T02:43:32;35.45;;;33.45;;
22995;SDS011;11664;49.774;8.650;2022-10-16T02:45:59;32.17;;;30.40;;
22995;SDS011;11664;49.774;8.650;2022-10-16T02:48:25;28.60;;;27.00;;
22995;SDS011;11664;49.774;8.650;2022-10-16T02:50:51;46.20;;;43.70;;
22995;SDS011;11664;49.774;8.650;2022-10-16T02:53:17;28.23;;;26.63;;
22995;SDS011;11664;49.774;8.650;2022-10-16T02:55:43;17.98;;;16.95;;
22995;SDS011;11664;49.774;8.650;2022-10-16T02:58:09;12.30;;;11.45;;
22995;SDS011;11664;49.774;8.650;2022-10-16T03:00:35;20.17;;;18.83;;
22995;SDS011;11664;49.774;8.650;2022-10-16T03:03:01;23.90;;;22.55;;
22995;SDS011;11664;49.774;8.650;2022-10-16T03:05:27;24.70;;;23.27;;
22995;SDS011;11664;49.774;8.650;2022-10-16T03:07:53;13.38;;;12.48;;
22995;SDS011;11664;49.774;8.650;2022-10-16T03:10:19;13.60;;;12.80;;
22995;SDS011;11664;49.774;8.650;2022-10-16T03:12:45;13.55;;;12.73;;
22995;SDS011;11664;49.774;8.650;2022-10-16T03:15:11;34.03;;;32.25;;
22995;SDS011;11664;49.774;8.650;2022-10-16T03:17:37;29.52;;;27.42;;
22995;SDS011;11664;49.774;8.650;2022-10-16T03:20:03;27.55;;;25.90;;
22995;SDS011;11664;49.774;8.650;2022-10-16T03:22:29;49.47;;;46.83;;
22995;SDS011;11664;49.774;8.650;2022-10-16T03:24:55;23.08;;;21.58;;
22995;SDS011;11664;49.774;8.650;2022-10-16T03:27:21;16.95;;;15.95;;
22995;SDS011;11664;49.774;8.650;2022-10-16T03:29:47;22.70;;;21.42;;
22995;SDS011;11664;49.774;8.650;2022-10-16T03:32:13;23.13;;;21.83;;
22995;SDS011;11664;49.774;8.650;2022-10-16T03:34:39;27.35;;;25.73;;
22995;SDS011;11664;49.774;8.650;2022-10-16T03:37:05;39.47;;;37.15;;
22995;SDS011;11664;49.774;8.650;2022-10-16T03:39:31;57.50;;;54.33;;
22995;SDS011;11664;49.774;8.650;2022-10-16T03:41:57;66.88;;;62.78;;
22995;SDS011;11664;49.774;8.650;2022-10-16T03:44:23;41.30;;;38.65;;
22995;SDS011;11664;49.774;8.650;2022-10-16T03:46:49;29.60;;;27.90;;
22995;SDS011;11664;49.774;8.650;2022-10-16T03:49:15;28.55;;;26.92;;
22995;SDS011;11664;49.774;8.650;2022-10-16T03:51:41;43.85;;;41.50;;
22995;SDS011;11664;49.774;8.650;2022-10-16T03:54:07;48.08;;;45.28;;
22995;SDS011;11664;49.774;8.650;2022-10-16T03:56:33;36.35;;;34.40;;
22995;SDS011;11664;49.774;8.650;2022-10-16T03:58:59;23.58;;;22.30;;
22995;SDS011;11664;49.774;8.650;2022-10-16T04:01:25;15.20;;;14.20;;
22995;SDS011;11664;49.774;8.650;2022-10-16T04:03:51;15.13;;;14.07;;
22995;SDS011;11664;49.774;8.650;2022-10-16T04:06:17;16.08;;;15.25;;
22995;SDS011;11664;49.774;8.650;2022-10-16T04:08:43;18.10;;;17.15;;
22995;SDS011;11664;49.774;8.650;2022-10-16T04:11:09;21.73;;;20.33;;
22995;SDS011;11664;49.774;8.650;2022-10-16T04:13:36;28.25;;;26.27;;
22995;SDS011;11664;49.774;8.650;2022-10-16T04:16:02;20.77;;;19.70;;
22995;SDS011;11664;49.774;8.650;2022-10-16T04:18:28;24.73;;;23.50;;
22995;SDS011;11664;49.774;8.650;2022-10-16T04:20:54;33.50;;;31.50;;
22995;SDS011;11664;49.774;8.650;2022-10-16T04:23:20;31.05;;;29.48;;
22995;SDS011;11664;49.774;8.650;2022-10-16T04:25:47;24.25;;;22.95;;
22995;SDS011;11664;49.774;8.650;2022-10-16T04:28:13;17.77;;;16.88;;
22995;SDS011;11664;49.774;8.650;2022-10-16T04:30:39;20.88;;;19.83;;
22995;SDS011;11664;49.774;8.650;2022-10-16T04:33:05;30.75;;;29.17;;
22995;SDS011;11664;49.774;8.650;2022-10-16T04:35:31;35.67;;;33.85;;
22995;SDS011;11664;49.774;8.650;2022-10-16T04:37:58;29.98;;;28.42;;
22995;SDS011;11664;49.774;8.650;2022-10-16T04:40:24;36.53;;;34.70;;
22995;SDS011;11664;49.774;8.650;2022-10-16T04:42:50;34.97;;;33.05;;
22995;SDS011;11664;49.774;8.650;2022-10-16T04:45:16;55.47;;;52.30;;
22995;SDS011;11664;49.774;8.650;2022-10-16T04:47:42;50.58;;;48.00;;
22995;SDS011;11664;49.774;8.650;2022-10-16T04:50:08;51.22;;;48.30;;
22995;SDS011;11664;49.774;8.650;2022-10-16T04:52:34;30.35;;;28.70;;
22995;SDS011;11664;49.774;8.650;2022-10-16T04:55:01;23.48;;;21.67;;
22995;SDS011;11664;49.774;8.650;2022-10-16T04:57:28;8.38;;;7.97;;
22995;SDS011;11664;49.774;8.650;2022-10-16T04:59:54;10.82;;;10.27;;
22995;SDS011;11664;49.774;8.650;2022-10-16T05:02:20;62.85;;;59.03;;
22995;SDS011;11664;49.774;8.650;2022-10-16T05:04:46;39.08;;;37.08;;
22995;SDS011;11664;49.774;8.650;2022-10-16T05:07:12;10.50;;;9.90;;
22995;SDS011;11664;49.774;8.650;2022-10-16T05:09:38;10.63;;;9.73;;
22995;SDS011;11664;49.774;8.650;2022-10-16T05:12:04;21.77;;;20.20;;
22995;SDS011;11664;49.774;8.650;2022-10-16T05:14:30;20.75;;;19.65;;
22995;SDS011;11664;49.774;8.650;2022-10-16T05:16:56;6.57;;;6.25;;
22995;SDS011;11664;49.774;8.650;2022-10-16T05:19:22;22.02;;;20.92;;
22995;SDS011;11664;49.774;8.650;2022-10-16T05:21:48;13.27;;;10.50;;
22995;SDS011;11664;49.774;8.650;2022-10-16T05:24:14;18.33;;;16.50;;
22995;SDS011;11664;49.774;8.650;2022-10-16T05:26:40;14.32;;;13.57;;
22995;SDS011;11664;49.774;8.650;2022-10-16T05:29:06;16.83;;;14.57;;
22995;SDS011;11664;49.774;8.650;2022-10-16T05:31:32;10.30;;;9.73;;
22995;SDS011;11664;49.774;8.650;2022-10-16T05:33:59;9.63;;;5.18;;
22995;SDS011;11664;49.774;8.650;2022-10-16T05:36:25;5.70;;;5.20;;
22995;SDS011;11664;49.774;8.650;2022-10-16T05:38:51;6.30;;;5.90;;
22995;SDS011;11664;49.774;8.650;2022-10-16T05:41:17;6.30;;;5.80;;
22995;SDS011;11664;49.774;8.650;2022-10-16T05:43:49;9.30;;;8.82;;
22995;SDS011;11664;49.774;8.650;2022-10-16T05:46:16;9.20;;;8.73;;
22995;SDS011;11664;49.774;8.650;2022-10-16T05:48:42;17.77;;;16.88;;
22995;SDS011;11664;49.774;8.650;2022-10-16T05:51:12;12.20;;;11.57;;
22995;SDS011;11664;49.774;8.650;2022-10-16T05:53:38;20.50;;;19.48;;
22995;SDS011;11664;49.774;8.650;2022-10-16T05:56:06;8.85;;;8.35;;
22995;SDS011;11664;49.774;8.650;2022-10-16T05:58:33;18.38;;;17.42;;
22995;SDS011;11664;49.774;8.650;2022-10-16T06:01:04;37.05;;;35.20;;
22995;SDS011;11664;49.774;8.650;2022-10-16T06:03:31;32.13;;;30.38;;
22995;SDS011;11664;49.774;8.650;2022-10-16T06:05:57;17.02;;;16.05;;
22995;SDS011;11664;49.774;8.650;2022-10-16T06:08:23;16.60;;;15.70;;
22995;SDS011;11664;49.774;8.650;2022-10-16T06:10:59;16.88;;;16.02;;
22995;SDS011;11664;49.774;8.650;2022-10-16T06:13:25;13.27;;;12.43;;
22995;SDS011;11664;49.774;8.650;2022-10-16T06:15:51;15.02;;;14.10;;
22995;SDS011;11664;49.774;8.650;2022-10-16T06:18:17;20.92;;;19.75;;
22995;SDS011;11664;49.774;8.650;2022-10-16T06:20:43;20.75;;;19.75;;
22995;SDS011;11664;49.774;8.650;2022-10-16T06:23:09;22.30;;;21.20;;
22995;SDS011;11664;49.774;8.650;2022-10-16T06:25:35;21.95;;;20.77;;
22995;SDS011;11664;49.774;8.650;2022-10-16T06:28:01;36.13;;;34.28;;
22995;SDS011;11664;49.774;8.650;2022-10-16T06:30:27;56.05;;;53.10;;
22995;SDS011;11664;49.774;8.650;2022-10-16T06:32:53;60.63;;;57.53;;
22995;SDS011;11664;49.774;8.650;2022-10-16T06:35:19;52.03;;;49.28;;
22995;SDS011;11664;49.774;8.650;2022-10-16T06:37:45;32.15;;;30.52;;
22995;SDS011;11664;49.774;8.650;2022-10-16T06:40:11;37.70;;;35.72;;
22995;SDS011;11664;49.774;8.650;2022-10-16T06:42:39;19.17;;;17.77;;
22995;SDS011;11664;49.774;8.650;2022-10-16T06:45:05;20.20;;;19.15;;
22995;SDS011;11664;49.774;8.650;2022-10-16T06:47:31;15.43;;;14.65;;
22995;SDS011;11664;49.774;8.650;2022-10-16T06:49:57;19.70;;;18.70;;
22995;SDS011;11664;49.774;8.650;2022-10-16T06:52:23;32.25;;;30.65;;
22995;SDS011;11664;49.774;8.650;2022-10-16T06:54:49;44.10;;;41.83;;
22995;SDS011;11664;49.774;8.650;2022-10-16T06:57:16;42.40;;;40.22;;
22995;SDS011;11664;49.774;8.650;2022-10-16T06:59:42;14.18;;;13.43;;
22995;SDS011;11664;49.774;8.650;2022-10-16T07:02:08;27.33;;;25.92;;
22995;SDS011;11664;49.774;8.650;2022-10-16T07:04:35;35.97;;;34.00;;
22995;SDS011;11664;49.774;8.650;2022-10-16T07:07:01;33.20;;;31.35;;
22995;SDS011;11664;49.774;8.650;2022-10-16T07:09:27;86.85;;;82.28;;
22995;SDS011;11664;49.774;8.650;2022-10-16T07:11:53;35.10;;;33.17;;
22995;SDS011;11664;49.774;8.650;2022-10-16T07:14:20;10.27;;;9.52;;
22995;SDS011;11664;49.774;8.650;2022-10-16T07:16:46;52.58;;;49.83;;
22995;SDS011;11664;49.774;8.650;2022-10-16T07:19:12;16.33;;;15.48;;
22995;SDS011;11664;49.774;8.650;2022-10-16T07:21:40;21.95;;;20.83;;
22995;SDS011;11664;49.774;8.650;2022-10-16T07:24:07;12.02;;;11.40;;
22995;SDS011;11664;49.774;8.650;2022-10-16T07:26:34;7.03;;;6.53;;
22995;SDS011;11664;49.774;8.650;2022-10-16T07:29:00;48.38;;;45.95;;
22995;SDS011;11664;49.774;8.650;2022-10-16T07:31:26;11.80;;;11.15;;
22995;SDS011;11664;49.774;8.650;2022-10-16T07:33:53;16.10;;;15.32;;
22995;SDS011;11664;49.774;8.650;2022-10-16T07:36:19;12.68;;;11.95;;
22995;SDS011;11664;49.774;8.650;2022-10-16T07:38:46;19.25;;;18.00;;
22995;SDS011;11664;49.774;8.650;2022-10-16T07:41:14;17.10;;;16.15;;
22995;SDS011;11664;49.774;8.650;2022-10-16T07:43:40;11.52;;;10.93;;
22995;SDS011;11664;49.774;8.650;2022-10-16T07:46:10;8.23;;;7.63;;
22995;SDS011;11664;49.774;8.650;2022-10-16T07:48:36;8.05;;;7.25;;
22995;SDS011;11664;49.774;8.650;2022-10-16T07:51:04;6.85;;;6.47;;
22995;SDS011;11664;49.774;8.650;2022-10-16T07:53:30;6.18;;;5.85;;
22995;SDS011;11664;49.774;8.650;2022-10-16T07:56:00;6.72;;;6.43;;
22995;SDS011;11664;49.774;8.650;2022-10-16T07:58:27;5.18;;;4.78;;
22995;SDS011;11664;49.774;8.650;2022-10-16T08:00:53;6.25;;;5.93;;
22995;SDS011;11664;49.774;8.650;2022-10-16T08:03:19;7.10;;;6.72;;
22995;SDS011;11664;49.774;8.650;2022-10-16T08:05:45;11.95;;;11.38;;
22995;SDS011;11664;49.774;8.650;2022-10-16T08:08:13;8.57;;;8.07;;
22995;SDS011;11664;49.774;8.650;2022-10-16T08:10:39;7.82;;;7.35;;
22995;SDS011;11664;49.774;8.650;2022-10-16T08:13:05;14.98;;;14.23;;
22995;SDS011;11664;49.774;8.650;2022-10-16T08:15:31;9.23;;;6.82;;
22995;SDS011;11664;49.774;8.650;2022-10-16T08:18:01;7.68;;;7.15;;
22995;SDS011;11664;49.774;8.650;2022-10-16T08:20:28;10.73;;;10.15;;
22995;SDS011;11664;49.774;8.650;2022-10-16T08:22:54;14.52;;;13.35;;
22995;SDS011;11664;49.774;8.650;2022-10-16T08:25:21;10.23;;;9.73;;
22995;SDS011;11664;49.774;8.650;2022-10-16T08:27:47;14.35;;;13.65;;
22995;SDS011;11664;49.774;8.650;2022-10-16T08:30:13;36.58;;;34.63;;
22995;SDS011;11664;49.774;8.650;2022-10-16T08:32:39;16.00;;;15.02;;
22995;SDS011;11664;49.774;8.650;2022-10-16T08:35:07;22.13;;;20.88;;
22995;SDS011;11664;49.774;8.650;2022-10-16T08:37:34;29.60;;;28.13;;
22995;SDS011;11664;49.774;8.650;2022-10-16T08:40:00;21.20;;;20.13;;
22995;SDS011;11664;49.774;8.650;2022-10-16T08:42:32;15.27;;;14.48;;
22995;SDS011;11664;49.774;8.650;2022-10-16T08:50:10;71.97;;;68.18;;
22995;SDS011;11664;49.774;8.650;2022-10-16T08:52:38;30.25;;;28.60;;
22995;SDS011;11664;49.774;8.650;2022-10-16T08:55:05;27.63;;;26.23;;
22995;SDS011;11664;49.774;8.650;2022-10-16T08:57:31;35.70;;;33.35;;
22995;SDS011;11664;49.774;8.650;2022-10-16T09:00:00;44.72;;;42.33;;
22995;SDS011;11664;49.774;8.650;2022-10-16T09:05:02;61.90;;;58.67;;
22995;SDS011;11664;49.774;8.650;2022-10-16T09:07:42;12.70;;;11.82;;
22995;SDS011;11664;49.774;8.650;2022-10-16T09:12:42;12.05;;;11.45;;
22995;SDS011;11664;49.774;8.650;2022-10-16T09:15:31;19.40;;;18.20;;
22995;SDS011;11664;49.774;8.650;2022-10-16T09:18:06;39.33;;;36.97;;
22995;SDS011;11664;49.774;8.650;2022-10-16T09:25:31;9.15;;;8.65;;
22995;SDS011;11664;49.774;8.650;2022-10-16T09:27:58;4.25;;;4.05;;
22995;SDS011;11664;49.774;8.650;2022-10-16T09:30:26;14.68;;;13.77;;
22995;SDS011;11664;49.774;8.650;2022-10-16T09:32:53;29.83;;;28.27;;
22995;SDS011;11664;49.774;8.650;2022-10-16T09:35:19;9.40;;;7.88;;
22995;SDS011;11664;49.774;8.650;2022-10-16T09:37:47;6.75;;;6.20;;
22995;SDS011;11664;49.774;8.650;2022-10-16T09:40:24;6.45;;;6.15;;
22995;SDS011;11664;49.774;8.650;2022-10-16T09:42:50;24.33;;;23.00;;
22995;SDS011;11664;49.774;8.650;2022-10-16T09:47:55;10.25;;;9.55;;
22995;SDS011;11664;49.774;8.650;2022-10-16T09:50:23;11.80;;;10.98;;
22995;SDS011;11664;49.774;8.650;2022-10-16T09:52:51;14.65;;;13.90;;
22995;SDS011;11664;49.774;8.650;2022-10-16T09:55:17;20.83;;;19.67;;
22995;SDS011;11664;49.774;8.650;2022-10-16T09:57:50;14.93;;;14.23;;
22995;SDS011;11664;49.774;8.650;2022-10-16T10:00:16;11.20;;;10.65;;
22995;SDS011;11664;49.774;8.650;2022-10-16T10:02:43;8.68;;;8.27;;
22995;SDS011;11664;49.774;8.650;2022-10-16T10:07:52;10.35;;;9.85;;
22995;SDS011;11664;49.774;8.650;2022-10-16T10:10:20;10.38;;;9.88;;
22995;SDS011;11664;49.774;8.650;2022-10-16T10:12:47;7.05;;;6.65;;
22995;SDS011;11664;49.774;8.650;2022-10-16T10:15:13;9.43;;;9.00;;
22995;SDS011;11664;49.774;8.650;2022-10-16T10:17:56;15.02;;;14.25;;
22995;SDS011;11664;49.774;8.650;2022-10-16T10:22:52;11.63;;;11.02;;
22995;SDS011;11664;49.774;8.650;2022-10-16T10:28:05;8.30;;;7.90;;
22995;SDS011;11664;49.774;8.650;2022-10-16T10:30:41;6.10;;;5.80;;
22995;SDS011;11664;49.774;8.650;2022-10-16T10:38:38;6.88;;;6.47;;
22995;SDS011;11664;49.774;8.650;2022-10-16T10:44:01;10.75;;;10.07;;
22995;SDS011;11664;49.774;8.650;2022-10-16T10:53:57;5.22;;;5.00;;
22995;SDS011;11664;49.774;8.650;2022-10-16T10:59:03;8.27;;;7.82;;
22995;SDS011;11664;49.774;8.650;2022-10-16T11:04:23;6.50;;;4.72;;
22995;SDS011;11664;49.774;8.650;2022-10-16T11:06:53;4.60;;;4.38;;
22995;SDS011;11664;49.774;8.650;2022-10-16T11:09:22;6.65;;;6.05;;
22995;SDS011;11664;49.774;8.650;2022-10-16T11:11:52;6.45;;;6.13;;
22995;SDS011;11664;49.774;8.650;2022-10-16T11:14:24;6.53;;;6.22;;
22995;SDS011;11664;49.774;8.650;2022-10-16T11:16:52;6.57;;;6.28;;
22995;SDS011;11664;49.774;8.650;2022-10-16T11:19:27;5.25;;;4.93;;
22995;SDS011;11664;49.774;8.650;2022-10-16T11:22:01;4.85;;;4.55;;
22995;SDS011;11664;49.774;8.650;2022-10-16T11:24:35;5.72;;;5.43;;
22995;SDS011;11664;49.774;8.650;2022-10-16T11:27:04;4.43;;;4.13;;
22995;SDS011;11664;49.774;8.650;2022-10-16T11:29:33;4.70;;;4.40;;
22995;SDS011;11664;49.774;8.650;2022-10-16T11:32:06;11.23;;;10.68;;
22995;SDS011;11664;49.774;8.650;2022-10-16T11:34:47;13.75;;;13.05;;
22995;SDS011;11664;49.774;8.650;2022-10-16T11:37:23;7.70;;;7.38;;
22995;SDS011;11664;49.774;8.650;2022-10-16T11:39:50;12.38;;;11.77;;
22995;SDS011;11664;49.774;8.650;2022-10-16T11:42:22;17.20;;;16.20;;
22995;SDS011;11664;49.774;8.650;2022-10-16T11:44:54;7.82;;;7.35;;
22995;SDS011;11664;49.774;8.650;2022-10-16T11:47:30;15.77;;;14.88;;
22995;SDS011;11664;49.774;8.650;2022-10-16T11:49:58;24.63;;;23.33;;
22995;SDS011;11664;49.774;8.650;2022-10-16T11:52:30;15.88;;;15.07;;
22995;SDS011;11664;49.774;8.650;2022-10-16T11:55:05;6.20;;;5.78;;
22995;SDS011;11664;49.774;8.650;2022-10-16T11:57:45;10.85;;;10.35;;
22995;SDS011;11664;49.774;8.650;2022-10-16T12:00:30;11.25;;;10.68;;
22995;SDS011;11664;49.774;8.650;2022-10-16T12:03:17;10.30;;;9.80;;
22995;SDS011;11664;49.774;8.650;2022-10-16T12:08:21;8.70;;;8.20;;
22995;SDS011;11664;49.774;8.650;2022-10-16T12:10:47;10.20;;;9.70;;
22995;SDS011;11664;49.774;8.650;2022-10-16T12:13:34;8.70;;;8.00;;
22995;SDS011;11664;49.774;8.650;2022-10-16T12:16:49;10.02;;;9.52;;
22995;SDS011;11664;49.774;8.650;2022-10-16T12:18:50;5.28;;;5.03;;
22995;SDS011;11664;49.774;8.650;2022-10-16T12:21:31;5.43;;;5.13;;
22995;SDS011;11664;49.774;8.650;2022-10-16T12:23:58;13.55;;;12.77;;
22995;SDS011;11664;49.774;8.650;2022-10-16T12:26:27;7.78;;;7.40;;
22995;SDS011;11664;49.774;8.650;2022-10-16T12:28:54;5.25;;;4.95;;
22995;SDS011;11664;49.774;8.650;2022-10-16T12:31:21;6.25;;;5.95;;
22995;SDS011;11664;49.774;8.650;2022-10-16T12:34:14;9.93;;;9.43;;
22995;SDS011;11664;49.774;8.650;2022-10-16T12:36:37;15.07;;;14.13;;
22995;SDS011;11664;49.774;8.650;2022-10-16T12:39:03;15.57;;;14.73;;
22995;SDS011;11664;49.774;8.650;2022-10-16T12:41:30;12.05;;;11.45;;
22995;SDS011;11664;49.774;8.650;2022-10-16T12:43:58;8.60;;;8.00;;
22995;SDS011;11664;49.774;8.650;2022-10-16T12:51:41;4.55;;;4.30;;
22995;SDS011;11664;49.774;8.650;2022-10-16T12:54:12;7.07;;;6.70;;
22995;SDS011;11664;49.774;8.650;2022-10-16T12:59:09;6.03;;;5.60;;
22995;SDS011;11664;49.774;8.650;2022-10-16T13:01:53;5.65;;;5.35;;
22995;SDS011;11664;49.774;8.650;2022-10-16T13:04:23;6.05;;;5.68;;
22995;SDS011;11664;49.774;8.650;2022-10-16T13:24:47;5.60;;;5.32;;
22995;SDS011;11664;49.774;8.650;2022-10-16T13:27:22;6.53;;;6.03;;
22995;SDS011;11664;49.774;8.650;2022-10-16T13:29:54;5.72;;;5.43;;
22995;SDS011;11664;49.774;8.650;2022-10-16T13:32:25;5.53;;;4.82;;
22995;SDS011;11664;49.774;8.650;2022-10-16T13:34:52;6.60;;;5.95;;
22995;SDS011;11664;49.774;8.650;2022-10-16T13:37:19;17.00;;;16.20;;
22995;SDS011;11664;49.774;8.650;2022-10-16T13:39:46;8.30;;;7.80;;
22995;SDS011;11664;49.774;8.650;2022-10-16T13:42:13;6.03;;;5.65;;
22995;SDS011;11664;49.774;8.650;2022-10-16T13:44:41;13.98;;;13.27;;
22995;SDS011;11664;49.774;8.650;2022-10-16T13:47:15;5.68;;;5.32;;
22995;SDS011;11664;49.774;8.650;2022-10-16T13:49:41;12.23;;;11.55;;
22995;SDS011;11664;49.774;8.650;2022-10-16T13:52:15;6.30;;;6.00;;
22995;SDS011;11664;49.774;8.650;2022-10-16T13:54:42;4.38;;;4.07;;
22995;SDS011;11664;49.774;8.650;2022-10-16T13:57:11;19.88;;;18.83;;
22995;SDS011;11664;49.774;8.650;2022-10-16T13:59:38;7.63;;;7.22;;
22995;SDS011;11664;49.774;8.650;2022-10-16T14:04:49;5.65;;;5.35;;
22995;SDS011;11664;49.774;8.650;2022-10-16T14:07:34;6.55;;;6.15;;
22995;SDS011;11664;49.774;8.650;2022-10-16T14:10:02;5.18;;;4.65;;
22995;SDS011;11664;49.774;8.650;2022-10-16T14:12:28;5.97;;;5.68;;
22995;SDS011;11664;49.774;8.650;2022-10-16T14:14:54;12.10;;;11.50;;
22995;SDS011;11664;49.774;8.650;2022-10-16T14:17:23;16.05;;;11.25;;
22995;SDS011;11664;49.774;8.650;2022-10-16T14:19:51;6.65;;;6.25;;
22995;SDS011;11664;49.774;8.650;2022-10-16T14:24:46;4.68;;;4.47;;
22995;SDS011;11664;49.774;8.650;2022-10-16T14:27:27;5.22;;;4.90;;
22995;SDS011;11664;49.774;8.650;2022-10-16T14:30:13;7.50;;;4.47;;
22995;SDS011;11664;49.774;8.650;2022-10-16T14:32:40;4.28;;;3.97;;
22995;SDS011;11664;49.774;8.650;2022-10-16T14:35:21;4.70;;;4.40;;
22995;SDS011;11664;49.774;8.650;2022-10-16T14:37:50;4.85;;;4.55;;
22995;SDS011;11664;49.774;8.650;2022-10-16T14:40:17;3.80;;;3.50;;
22995;SDS011;11664;49.774;8.650;2022-10-16T14:42:43;4.50;;;4.20;;
22995;SDS011;11664;49.774;8.650;2022-10-16T14:45:09;4.20;;;3.63;;
22995;SDS011;11664;49.774;8.650;2022-10-16T14:47:36;4.57;;;4.22;;
22995;SDS011;11664;49.774;8.650;2022-10-16T14:50:04;5.65;;;5.35;;
22995;SDS011;11664;49.774;8.650;2022-10-16T14:52:30;5.38;;;5.07;;
22995;SDS011;11664;49.774;8.650;2022-10-16T14:54:56;6.18;;;5.88;;
22995;SDS011;11664;49.774;8.650;2022-10-16T14:57:23;4.57;;;4.25;;
22995;SDS011;11664;49.774;8.650;2022-10-16T14:59:50;5.18;;;4.78;;
22995;SDS011;11664;49.774;8.650;2022-10-16T15:02:50;5.15;;;4.85;;
22995;SDS011;11664;49.774;8.650;2022-10-16T15:05:16;4.88;;;4.53;;
22995;SDS011;11664;49.774;8.650;2022-10-16T15:07:43;8.80;;;4.95;;
22995;SDS011;11664;49.774;8.650;2022-10-16T15:10:09;5.40;;;5.00;;
22995;SDS011;11664;49.774;8.650;2022-10-16T15:12:35;4.78;;;4.47;;
22995;SDS011;11664;49.774;8.650;2022-10-16T15:15:01;5.05;;;4.50;;
22995;SDS011;11664;49.774;8.650;2022-10-16T15:17:27;4.90;;;4.50;;
22995;SDS011;11664;49.774;8.650;2022-10-16T15:19:53;6.30;;;4.57;;
22995;SDS011;11664;49.774;8.650;2022-10-16T15:22:19;4.45;;;4.15;;
22995;SDS011;11664;49.774;8.650;2022-10-16T15:24:48;5.63;;;3.38;;
22995;SDS011;11664;49.774;8.650;2022-10-16T15:27:14;4.18;;;3.88;;
22995;SDS011;11664;49.774;8.650;2022-10-16T15:29:40;3.88;;;3.40;;
22995;SDS011;11664;49.774;8.650;2022-10-16T15:32:06;4.30;;;3.97;;
22995;SDS011;11664;49.774;8.650;2022-10-16T15:34:32;7.78;;;7.25;;
22995;SDS011;11664;49.774;8.650;2022-10-16T15:36:58;5.90;;;5.53;;
22995;SDS011;11664;49.774;8.650;2022-10-16T15:39:27;16.42;;;15.40;;
22995;SDS011;11664;49.774;8.650;2022-10-16T15:41:54;8.55;;;7.32;;
22995;SDS011;11664;49.774;8.650;2022-10-16T15:44:20;7.65;;;7.10;;
22995;SDS011;11664;49.774;8.650;2022-10-16T15:46:54;13.15;;;12.38;;
22995;SDS011;11664;49.774;8.650;2022-10-16T15:49:21;20.33;;;19.30;;
22995;SDS011;11664;49.774;8.650;2022-10-16T15:51:47;24.13;;;22.92;;
22995;SDS011;11664;49.774;8.650;2022-10-16T15:54:13;22.70;;;21.50;;
22995;SDS011;11664;49.774;8.650;2022-10-16T15:56:40;5.97;;;5.68;;
22995;SDS011;11664;49.774;8.650;2022-10-16T15:59:06;6.72;;;4.05;;
22995;SDS011;11664;49.774;8.650;2022-10-16T16:01:33;5.32;;;5.03;;
22995;SDS011;11664;49.774;8.650;2022-10-16T16:03:59;5.05;;;4.35;;
22995;SDS011;11664;49.774;8.650;2022-10-16T16:06:25;4.25;;;3.95;;
22995;SDS011;11664;49.774;8.650;2022-10-16T16:08:51;4.28;;;3.63;;
22995;SDS011;11664;49.774;8.650;2022-10-16T16:11:18;5.07;;;4.78;;
22995;SDS011;11664;49.774;8.650;2022-10-16T16:13:48;4.28;;;4.07;;
22995;SDS011;11664;49.774;8.650;2022-10-16T16:16:15;6.95;;;6.57;;